Flugplatz Arnstadt-Alkersleben

Für EDBA sind keine METAR/TAF Berichte vorhanden.
Es werden die Flugwettermeldungen vom Flugplatz Erfurt in 17 km Entfernung angezeigt.

Bericht für EDDE

vom 15.07. um 16:50 UTC

Wind 12 kt aus 320°

Sichtweite 10 km oder mehr

gering bewölkt in 1700 ft

Temperatur 15.0°C

Taupunkt 12.0°C

Luftfeuchtigkeit 82%

Luftdruck 1014 hPa

keine wesentliche Wetteränderung innerhalb den nächsten 2 Stunden zu erwarten

EDDE 151650Z 32012KT 9999 FEW017 15/12 Q1014 NOSIG

Prognose für EDDE

vom 15.07. um 11:00 UTC

Zwischen 12:00 UTC und 20:00 UTC

Wind 8 kt aus 310°

Sichtweite 10 km oder mehr

aufgelockert bewölkt in 1000 ft

aufgebrochene Bewölkung in 2500 ft


Zwischen 12:00 UTC und 15:00 UTC zeitweise mit einer Wahrscheinlichkeit von 40%

Sichtweite 4000 m

Code: TSRA

aufgebrochene Bewölkung in 900 ft

aufgebrochene Bewölkung in 2000 ft


Zwischen 20:00 und 22:00 UTC übergehend zu

Wind 5 kt aus 250°

Sichtweite 10 km oder mehr

aufgelockert bewölkt in 1000 ft

aufgebrochene Bewölkung in 2500 ft

TAF EDDE 151100Z 1512/1612 31008KT 9999 SCT010 BKN025 PROB40 TEMPO 1512/1515 4000 TSRA BKN009 BKN020CB BECMG 1520/1522 25005KT
Impressum